Time;durP1;ratioP1;P1;durP2;ratioP2;P2;SDS_P1;SDS_P2;PMS_P1;PMS_P2;Temp;Humidity;BMP_temperature;BMP_pressure;BME280_temperature;BME280_humidity;BME280_pressure;Samples;Min_cycle;Max_cycle;Signal;HPM_P1;HPM_P2
2021/07/05 00:01:51;;;;;;;7.82;4.47;;;;;;;16.09;56.18;100791.13;5044615;28;20164;-71
2021/07/05 00:04:16;;;;;;;7.43;4.93;;;;;;;16.04;55.88;100796.69;5040644;28;20025;-70
2021/07/05 00:06:42;;;;;;;6.38;4.95;;;;;;;16.07;56.05;100790.38;5041828;28;20456;-70
2021/07/05 00:09:07;;;;;;;10.60;5.00;;;;;;;16.06;56.33;100791.28;5041365;28;20040;-70
2021/07/05 00:11:33;;;;;;;6.88;4.65;;;;;;;16.08;56.44;100792.88;5059970;28;20112;-70
2021/07/05 00:13:59;;;;;;;8.95;5.88;;;;;;;16.04;56.19;100803.72;5038811;28;20412;-68
2021/07/05 00:16:25;;;;;;;6.68;5.35;;;;;;;15.97;56.64;100801.47;5042036;28;20344;-68
2021/07/05 00:18:50;;;;;;;8.57;6.82;;;;;;;15.93;56.22;100804.38;5052216;28;20083;-67
2021/07/05 00:21:16;;;;;;;8.93;5.72;;;;;;;15.96;56.54;100804.19;5041798;28;20064;-69
2021/07/05 00:23:42;;;;;;;8.77;6.32;;;;;;;15.94;56.78;100804.28;5038986;28;20032;-72
2021/07/05 00:26:09;;;;;;;14.25;6.68;;;;;;;15.93;56.79;100799.97;5031906;28;20028;-69
2021/07/05 00:28:35;;;;;;;8.40;6.38;;;;;;;16.14;56.02;100802.19;5042462;28;20033;-71
2021/07/05 00:31:01;;;;;;;10.55;6.82;;;;;;;16.13;56.34;100797.84;5045513;28;20018;-70
2021/07/05 00:33:27;;;;;;;8.27;6.47;;;;;;;16.15;56.53;100809.16;5027273;28;20034;-70
2021/07/05 00:35:52;;;;;;;8.57;6.88;;;;;;;16.20;56.36;100796.53;5039090;28;20044;-71
2021/07/05 00:38:18;;;;;;;14.10;7.88;;;;;;;16.06;56.46;100797.41;5044764;28;20036;-70
2021/07/05 00:40:43;;;;;;;11.30;7.00;;;;;;;16.10;56.57;100796.25;5042368;28;20037;-71
2021/07/05 00:43:09;;;;;;;10.45;7.95;;;;;;;16.06;56.60;100799.19;5044296;28;20433;-70
2021/07/05 00:45:35;;;;;;;9.77;7.82;;;;;;;16.16;56.93;100810.84;5039240;28;20043;-70
2021/07/05 00:48:00;;;;;;;14.32;8.55;;;;;;;16.02;56.99;100802.97;5026248;28;20032;-69
2021/07/05 00:50:28;;;;;;;12.27;8.80;;;;;;;16.07;56.78;100798.28;5039937;28;20130;-69
2021/07/05 00:52:56;;;;;;;12.93;9.85;;;;;;;16.24;56.44;100805.91;5039111;28;20098;-69
2021/07/05 00:55:22;;;;;;;13.80;10.93;;;;;;;16.20;56.69;100793.91;5039827;28;20661;-69
2021/07/05 00:57:48;;;;;;;16.92;10.70;;;;;;;16.07;57.10;100787.72;5040518;28;20559;-69
2021/07/05 01:00:19;;;;;;;15.55;10.65;;;;;;;16.22;56.78;100784.09;5041563;28;20043;-69
2021/07/05 01:02:47;;;;;;;17.40;10.50;;;;;;;16.27;56.76;100779.34;5039737;28;20041;-69
2021/07/05 01:05:13;;;;;;;18.38;11.48;;;;;;;16.31;56.40;100780.84;5039708;28;20029;-71
2021/07/05 01:07:40;;;;;;;11.85;9.55;;;;;;;16.35;56.49;100777.06;5040391;28;20036;-69
2021/07/05 01:10:07;;;;;;;16.35;10.48;;;;;;;16.35;56.43;100784.97;5042236;28;20040;-69
2021/07/05 01:12:33;;;;;;;17.50;11.02;;;;;;;16.37;56.42;100777.78;5040560;28;20052;-70
2021/07/05 01:14:59;;;;;;;17.02;10.60;;;;;;;16.38;56.42;100771.56;5050921;28;20354;-68
2021/07/05 01:17:25;;;;;;;21.17;10.43;;;;;;;16.39;56.03;100770.63;5039461;28;20428;-70
2021/07/05 01:19:50;;;;;;;18.90;11.30;;;;;;;16.34;56.14;100774.53;5043156;28;20033;-71
2021/07/05 01:22:17;;;;;;;18.33;10.48;;;;;;;16.38;56.24;100773.38;5039253;28;20036;-71
2021/07/05 01:24:44;;;;;;;16.92;10.13;;;;;;;16.37;56.32;100771.66;5040656;28;20033;-71
2021/07/05 01:27:10;;;;;;;18.15;10.65;;;;;;;16.40;56.33;100772.31;5037492;28;20514;-70
2021/07/05 01:29:39;;;;;;;17.23;11.45;;;;;;;16.39;56.07;100764.50;5042390;28;20057;-68
2021/07/05 01:32:06;;;;;;;16.58;12.02;;;;;;;16.32;56.12;100769.34;5041612;28;20131;-69
2021/07/05 01:34:31;;;;;;;14.25;9.63;;;;;;;16.37;56.23;100767.22;5039050;28;20064;-70
2021/07/05 01:36:57;;;;;;;17.20;10.90;;;;;;;16.41;56.57;100767.88;5039767;28;20068;-71
2021/07/05 01:39:23;;;;;;;17.90;10.45;;;;;;;16.38;56.44;100762.81;5040752;28;20024;-71
2021/07/05 01:41:48;;;;;;;16.65;11.82;;;;;;;16.09;57.22;100767.38;5052342;28;20127;-70
2021/07/05 01:44:15;;;;;;;17.27;9.50;;;;;;;16.37;56.21;100772.50;5040990;28;20017;-71
2021/07/05 01:46:40;;;;;;;17.98;11.50;;;;;;;16.21;56.59;100771.84;5040439;28;20037;-72
2021/07/05 01:49:06;;;;;;;17.58;9.80;;;;;;;16.23;56.57;100771.75;5038504;28;20146;-70
2021/07/05 01:51:33;;;;;;;15.98;10.55;;;;;;;16.01;56.96;100767.88;5039180;28;20063;-71
2021/07/05 01:53:59;;;;;;;15.00;10.75;;;;;;;16.35;56.12;100773.56;5040933;28;20040;-69
2021/07/05 01:56:27;;;;;;;17.17;11.40;;;;;;;16.21;56.40;100766.56;5039774;28;20490;-69
2021/07/05 01:58:54;;;;;;;15.85;10.63;;;;;;;16.13;56.83;100764.44;5039565;28;20041;-69
2021/07/05 02:01:20;;;;;;;14.10;10.48;;;;;;;16.33;56.32;100767.53;5044168;28;20384;-71
2021/07/05 02:03:46;;;;;;;14.23;10.73;;;;;;;16.41;56.14;100768.72;5040182;28;20053;-69
2021/07/05 02:06:11;;;;;;;14.45;11.00;;;;;;;16.50;56.02;100761.16;5039419;28;20025;-70
2021/07/05 02:08:38;;;;;;;15.00;9.05;;;;;;;16.42;56.27;100761.69;5041078;28;20071;-70
2021/07/05 02:11:04;;;;;;;15.93;10.63;;;;;;;16.44;56.11;100756.28;5046031;28;20028;-69
2021/07/05 02:13:33;;;;;;;18.17;10.88;;;;;;;16.26;56.07;100753.91;5041571;28;20481;-70
2021/07/05 02:16:00;;;;;;;13.02;9.43;;;;;;;16.21;56.38;100762.13;5035930;28;20036;-70
2021/07/05 02:18:28;;;;;;;14.32;9.93;;;;;;;16.36;56.15;100759.44;5041123;28;20048;-70
2021/07/05 02:20:56;;;;;;;15.00;9.55;;;;;;;16.21;56.04;100756.84;5041328;28;20033;-70
2021/07/05 02:23:22;;;;;;;15.25;8.57;;;;;;;16.30;55.67;100755.41;5044299;28;20123;-69
2021/07/05 02:25:49;;;;;;;13.63;8.15;;;;;;;16.34;55.42;100750.78;5041701;28;20075;-69
2021/07/05 02:28:20;;;;;;;10.07;7.70;;;;;;;16.32;55.48;100755.31;5044059;28;20395;-70
2021/07/05 02:30:48;;;;;;;11.48;7.88;;;;;;;16.29;55.57;100753.72;5040847;28;20082;-68
2021/07/05 02:33:14;;;;;;;13.98;9.88;;;;;;;16.33;55.50;100763.13;5038044;28;20037;-71
2021/07/05 02:35:40;;;;;;;17.17;9.60;;;;;;;16.31;55.54;100756.25;5043554;28;20037;-71
2021/07/05 02:38:08;;;;;;;15.07;9.43;;;;;;;16.37;55.50;100756.69;5041610;28;20120;-71
2021/07/05 02:40:39;;;;;;;11.07;8.25;;;;;;;16.36;55.52;100760.28;5044698;28;20029;-71
2021/07/05 02:43:05;;;;;;;12.77;9.15;;;;;;;16.29;55.40;100758.16;5044507;28;20033;-71
2021/07/05 02:45:33;;;;;;;10.73;7.93;;;;;;;16.28;55.36;100751.19;5027168;28;20044;-72
2021/07/05 02:48:13;;;;;;;12.10;8.80;;;;;;;16.21;55.59;100750.75;5044540;28;20036;-70
2021/07/05 02:50:41;;;;;;;14.23;8.15;;;;;;;16.15;56.00;100753.78;5044846;28;20028;-70
2021/07/05 02:53:08;;;;;;;14.50;8.38;;;;;;;16.18;55.83;100756.22;5043847;28;20049;-71
2021/07/05 02:55:34;;;;;;;15.85;9.07;;;;;;;16.18;55.66;100756.22;5040930;28;20405;-70
2021/07/05 02:57:59;;;;;;;16.13;9.35;;;;;;;15.67;56.42;100758.63;5039777;28;20029;-71
2021/07/05 03:00:29;;;;;;;12.25;8.82;;;;;;;16.17;55.35;100755.34;5043373;28;20140;-70
2021/07/05 03:02:55;;;;;;;16.10;8.93;;;;;;;16.24;55.33;100750.53;5042894;28;20040;-71
2021/07/05 03:05:25;;;;;;;15.27;8.75;;;;;;;16.27;55.18;100742.44;5044186;28;20043;-70
2021/07/05 03:07:51;;;;;;;10.07;7.45;;;;;;;16.33;55.40;100749.94;5052373;28;20037;-70
2021/07/05 03:10:21;;;;;;;12.07;8.02;;;;;;;16.20;55.41;100749.06;5042743;28;20251;-70
2021/07/05 03:12:47;;;;;;;16.40;9.60;;;;;;;15.53;56.61;100748.97;5040051;28;20547;-67
2021/07/05 03:15:15;;;;;;;9.40;8.05;;;;;;;15.94;55.36;100748.94;5042537;28;20024;-67
2021/07/05 03:17:42;;;;;;;11.50;8.18;;;;;;;16.14;55.09;100754.72;5042660;28;20037;-67
2021/07/05 03:20:11;;;;;;;12.32;8.98;;;;;;;15.97;55.65;100748.75;5043435;28;20028;-68
2021/07/05 03:22:37;;;;;;;17.33;9.40;;;;;;;16.06;55.04;100752.59;5057626;28;20072;-68
2021/07/05 03:25:06;;;;;;;14.98;9.82;;;;;;;16.00;55.30;100743.31;5042577;28;20131;-67
2021/07/05 03:27:31;;;;;;;11.02;8.63;;;;;;;16.04;55.41;100743.97;5041120;28;20029;-68
2021/07/05 03:29:57;;;;;;;12.63;8.88;;;;;;;15.91;55.62;100748.31;5041545;28;20103;-68
2021/07/05 03:32:23;;;;;;;18.20;9.20;;;;;;;16.16;54.89;100748.41;5041406;28;20040;-68
2021/07/05 03:34:49;;;;;;;13.48;9.13;;;;;;;16.17;55.25;100743.97;5039450;28;20057;-68
2021/07/05 03:37:14;;;;;;;12.73;8.77;;;;;;;16.11;55.21;100744.41;5041562;28;20120;-68
2021/07/05 03:39:40;;;;;;;14.20;9.77;;;;;;;16.10;55.32;100747.97;5041017;28;20125;-68
2021/07/05 03:42:06;;;;;;;15.98;9.23;;;;;;;16.12;55.47;100746.91;5038584;28;20048;-68
2021/07/05 03:44:31;;;;;;;12.60;8.85;;;;;;;16.20;55.17;100741.16;5041626;28;20045;-68
2021/07/05 03:46:57;;;;;;;13.88;9.23;;;;;;;16.25;55.26;100738.22;5039987;28;20044;-68
2021/07/05 03:49:23;;;;;;;13.80;9.23;;;;;;;16.32;54.53;100740.31;5035683;28;20037;-68
2021/07/05 03:51:49;;;;;;;12.05;8.82;;;;;;;16.23;54.87;100737.47;5042574;28;20111;-67
2021/07/05 03:54:15;;;;;;;13.52;8.82;;;;;;;16.17;55.07;100731.63;5038281;28;20025;-67
2021/07/05 03:56:41;;;;;;;12.18;9.70;;;;;;;16.24;55.10;100734.72;5040908;28;20315;-67
2021/07/05 03:59:07;;;;;;;12.43;9.35;;;;;;;16.26;54.81;100740.72;5040205;28;20043;-68
2021/07/05 04:01:32;;;;;;;13.38;9.52;;;;;;;16.20;54.76;100739.34;5040068;28;20075;-67
2021/07/05 04:03:58;;;;;;;14.65;9.05;;;;;;;16.23;54.77;100740.94;5047903;28;20143;-66
2021/07/05 04:06:24;;;;;;;11.98;8.80;;;;;;;16.18;54.92;100740.41;5042914;28;20029;-66
2021/07/05 04:08:50;;;;;;;15.38;10.02;;;;;;;16.26;54.49;100732.81;5042582;28;20051;-67
2021/07/05 04:11:15;;;;;;;14.55;9.23;;;;;;;16.20;54.74;100739.34;5043334;28;20036;-66
2021/07/05 04:13:41;;;;;;;12.07;8.57;;;;;;;16.30;54.51;100749.28;5040075;28;20056;-67
2021/07/05 04:16:06;;;;;;;11.43;7.70;;;;;;;16.38;54.78;100737.28;5040531;28;20032;-67
2021/07/05 04:18:32;;;;;;;12.00;8.60;;;;;;;16.34;54.82;100743.72;5041320;28;20044;-67
2021/07/05 04:20:57;;;;;;;11.50;9.00;;;;;;;16.33;54.51;100743.81;5039599;28;20024;-67
2021/07/05 04:23:25;;;;;;;14.63;9.77;;;;;;;16.04;55.16;100743.97;5041114;28;20033;-69
2021/07/05 04:25:52;;;;;;;13.45;10.02;;;;;;;16.19;54.59;100742.09;5039517;28;20037;-67
2021/07/05 04:28:18;;;;;;;16.83;10.32;;;;;;;15.72;55.97;100744.19;5040342;28;20117;-69
2021/07/05 04:30:44;;;;;;;17.90;10.95;;;;;;;16.14;55.21;100747.66;5040531;28;20041;-68
2021/07/05 04:33:10;;;;;;;16.10;10.13;;;;;;;16.25;55.01;100740.84;5036300;28;20033;-69
2021/07/05 04:35:36;;;;;;;16.80;10.50;;;;;;;16.19;54.73;100737.66;5038379;28;20037;-68
2021/07/05 04:38:03;;;;;;;14.77;9.70;;;;;;;16.13;54.87;100745.13;5039354;28;20128;-69
2021/07/05 04:40:32;;;;;;;11.43;8.10;;;;;;;16.23;55.15;100738.31;5039570;28;20079;-68
2021/07/05 04:42:58;;;;;;;12.68;7.88;;;;;;;16.45;55.32;100736.88;5040266;28;20043;-69
2021/07/05 04:45:28;;;;;;;14.68;9.52;;;;;;;16.48;54.48;100747.22;5035548;28;20284;-69
2021/07/05 04:47:55;;;;;;;14.05;8.98;;;;;;;16.38;54.28;100745.19;5043551;28;20277;-68
2021/07/05 04:50:21;;;;;;;10.98;8.57;;;;;;;16.26;54.75;100746.00;5037242;28;20502;-70
2021/07/05 04:52:47;;;;;;;11.93;8.85;;;;;;;16.11;54.90;100744.41;5041745;28;20095;-70
2021/07/05 04:55:15;;;;;;;22.77;11.32;;;;;;;16.33;54.39;100744.66;5056330;28;20033;-66
2021/07/05 04:57:42;;;;;;;14.50;9.15;;;;;;;16.28;54.43;100752.03;5039628;28;20075;-70
2021/07/05 05:00:13;;;;;;;13.13;9.35;;;;;;;16.40;54.44;100747.75;5051601;28;20026;-67
2021/07/05 05:02:38;;;;;;;15.10;9.80;;;;;;;16.44;54.51;100743.94;5038528;28;20037;-67
2021/07/05 05:05:07;;;;;;;13.48;8.00;;;;;;;16.42;54.47;100740.59;5021997;28;20191;-68
2021/07/05 05:07:33;;;;;;;14.70;9.55;;;;;;;15.78;55.31;100748.25;5038809;28;20029;-67
2021/07/05 05:10:01;;;;;;;15.20;10.30;;;;;;;16.14;54.45;100744.19;5039229;28;20715;-68
2021/07/05 05:12:30;;;;;;;14.38;9.25;;;;;;;16.32;54.48;100742.97;5042889;28;20518;-69
2021/07/05 05:14:56;;;;;;;12.88;9.45;;;;;;;16.28;54.69;100738.84;5039509;28;20029;-67
2021/07/05 05:17:22;;;;;;;13.38;8.52;;;;;;;16.42;54.56;100735.31;5040383;28;20040;-69
2021/07/05 05:19:47;;;;;;;13.45;9.05;;;;;;;16.44;54.28;100741.28;5039619;28;20033;-70
2021/07/05 05:22:13;;;;;;;13.68;8.23;;;;;;;16.55;54.67;100744.06;5039794;28;20560;-69
2021/07/05 05:24:39;;;;;;;17.55;10.10;;;;;;;16.76;54.05;100738.31;5043705;28;20095;-69
2021/07/05 05:27:04;;;;;;;16.73;9.27;;;;;;;16.67;53.59;100731.00;5027488;28;20041;-69
2021/07/05 05:29:30;;;;;;;13.32;9.40;;;;;;;16.86;53.82;100741.16;5042582;28;20024;-69
2021/07/05 05:31:56;;;;;;;12.85;9.23;;;;;;;17.16;53.64;100717.91;5040416;28;20033;-69
2021/07/05 05:34:21;;;;;;;12.23;8.27;;;;;;;18.54;49.93;100719.38;5040727;28;20044;-68
2021/07/05 05:36:47;;;;;;;11.82;9.23;;;;;;;19.59;46.94;100714.72;5041652;28;20032;-71
2021/07/05 05:39:12;;;;;;;11.75;8.20;;;;;;;21.63;43.32;100715.16;5040789;28;20493;-70
2021/07/05 05:41:38;;;;;;;11.60;6.60;;;;;;;21.50;41.87;100716.25;5037258;28;20040;-69
2021/07/05 05:44:04;;;;;;;8.57;7.53;;;;;;;19.29;45.86;100708.25;5042263;28;20445;-70
2021/07/05 05:46:33;;;;;;;10.20;8.02;;;;;;;18.83;48.18;100720.63;5038429;28;20116;-72
2021/07/05 05:49:00;;;;;;;11.45;8.30;;;;;;;18.48;47.99;100723.34;5036821;28;20044;-70
2021/07/05 05:51:31;;;;;;;13.48;8.13;;;;;;;17.96;49.75;100719.25;5037170;28;20597;-70
2021/07/05 05:53:59;;;;;;;13.00;8.63;;;;;;;17.48;51.05;100720.09;5040620;28;20029;-70
2021/07/05 05:56:25;;;;;;;16.02;8.82;;;;;;;17.33;51.94;100723.78;5053768;28;20630;-68
2021/07/05 05:58:50;;;;;;;13.82;8.38;;;;;;;17.41;51.24;100726.75;5041186;28;20033;-69
2021/07/05 06:01:16;;;;;;;11.68;8.35;;;;;;;17.57;50.51;100734.44;5044955;28;20462;-68
2021/07/05 06:03:41;;;;;;;13.30;9.43;;;;;;;17.54;50.90;100724.09;5046594;28;20072;-67
2021/07/05 06:06:07;;;;;;;13.98;8.10;;;;;;;17.33;50.59;100724.63;5042702;28;20033;-68
2021/07/05 06:08:32;;;;;;;13.38;8.55;;;;;;;17.64;50.60;100723.31;5043608;28;20064;-68
2021/07/05 06:10:58;;;;;;;11.73;8.45;;;;;;;17.54;50.64;100722.31;5044374;28;20047;-70
2021/07/05 06:13:23;;;;;;;11.68;8.27;;;;;;;17.83;50.54;100716.69;5042445;28;20037;-67
2021/07/05 06:15:49;;;;;;;12.90;9.07;;;;;;;18.22;48.84;100712.06;5041789;28;22856;-67
2021/07/05 06:18:14;;;;;;;13.98;10.00;;;;;;;17.34;51.22;100720.22;5043951;28;20052;-67
2021/07/05 06:20:40;;;;;;;11.52;9.30;;;;;;;17.54;50.53;100724.94;5042287;28;20029;-67
2021/07/05 06:23:16;;;;;;;15.07;11.02;;;;;;;16.79;51.68;100725.75;5043280;28;20040;-68
2021/07/05 06:25:42;;;;;;;17.30;11.13;;;;;;;15.96;54.64;100727.75;5061033;28;20095;-67
2021/07/05 06:28:11;;;;;;;17.00;10.48;;;;;;;17.19;51.58;100733.53;5043557;28;20461;-67
2021/07/05 06:30:36;;;;;;;16.98;11.57;;;;;;;17.44;50.95;100721.22;5039704;28;20106;-68
2021/07/05 06:33:02;;;;;;;20.35;12.23;;;;;;;16.70;52.32;100731.63;5039668;28;20530;-67
2021/07/05 06:35:27;;;;;;;19.80;12.07;;;;;;;17.29;51.43;100732.88;5041575;28;20033;-68
2021/07/05 06:37:53;;;;;;;21.92;13.60;;;;;;;17.29;51.25;100738.16;5042258;28;20762;-67
2021/07/05 06:40:19;;;;;;;20.58;12.50;;;;;;;17.27;50.66;100742.72;5042613;28;20049;-69
2021/07/05 06:42:44;;;;;;;19.13;13.13;;;;;;;17.48;50.44;100746.50;5044119;28;20426;-68
2021/07/05 06:45:13;;;;;;;18.85;12.52;;;;;;;17.27;50.86;100740.06;5044864;28;20481;-69
2021/07/05 06:47:38;;;;;;;21.70;13.38;;;;;;;17.33;50.66;100734.34;5041491;28;20063;-67
2021/07/05 06:50:05;;;;;;;20.58;13.35;;;;;;;17.50;50.28;100741.13;5042281;28;20067;-67
2021/07/05 06:52:33;;;;;;;24.17;12.68;;;;;;;17.20;51.51;100740.53;5053469;28;20044;-67
2021/07/05 06:55:00;;;;;;;21.48;12.75;;;;;;;17.03;50.39;100730.28;5042817;28;20091;-66
2021/07/05 06:57:29;;;;;;;18.85;12.98;;;;;;;17.28;50.62;100736.50;5039966;28;20714;-67
2021/07/05 06:59:59;;;;;;;20.48;11.15;;;;;;;17.50;49.95;100738.50;5043363;28;20505;-67
2021/07/05 07:02:24;;;;;;;20.02;12.90;;;;;;;18.14;48.53;100738.22;5041346;28;20032;-67
2021/07/05 07:04:50;;;;;;;19.40;12.25;;;;;;;17.64;49.29;100739.16;5042103;28;20060;-67
2021/07/05 07:07:16;;;;;;;19.75;13.48;;;;;;;18.60;46.74;100727.69;5041723;28;20035;-69
2021/07/05 07:09:42;;;;;;;19.13;12.80;;;;;;;19.36;46.16;100724.50;5042530;28;20095;-69
2021/07/05 07:12:08;;;;;;;17.70;12.77;;;;;;;21.20;41.14;100725.13;5041083;28;20045;-67
2021/07/05 07:14:33;;;;;;;16.88;11.82;;;;;;;21.93;38.58;100725.69;5044668;28;20033;-67
2021/07/05 07:17:18;;;;;;;16.10;12.07;;;;;;;23.49;35.96;100721.81;5045410;28;20041;-67
2021/07/05 07:19:43;;;;;;;13.90;9.93;;;;;;;26.10;32.88;100721.72;5041253;28;20429;-68
2021/07/05 07:22:09;;;;;;;12.52;9.75;;;;;;;27.97;29.19;100725.75;5038541;28;20041;-67
2021/07/05 07:24:34;;;;;;;11.20;8.68;;;;;;;28.18;28.93;100725.94;5041467;28;20032;-68
2021/07/05 07:27:00;;;;;;;12.70;9.77;;;;;;;25.12;32.76;100722.28;5039739;28;20037;-68
2021/07/05 07:29:26;;;;;;;16.15;10.40;;;;;;;24.50;32.09;100719.75;5044041;28;20068;-67
2021/07/05 07:31:53;;;;;;;10.38;8.70;;;;;;;27.12;31.15;100716.69;5042490;28;20108;-67
2021/07/05 07:34:19;;;;;;;8.93;7.35;;;;;;;26.92;29.90;100710.88;5040457;28;20028;-69
2021/07/05 07:36:44;;;;;;;11.52;9.38;;;;;;;25.97;31.19;100718.66;5042596;28;20031;-68
2021/07/05 07:39:13;;;;;;;12.85;8.57;;;;;;;24.83;34.38;100725.31;5040665;28;20036;-67
2021/07/05 07:41:39;;;;;;;11.63;9.05;;;;;;;24.27;33.74;100727.41;5042065;28;20060;-68
2021/07/05 07:44:05;;;;;;;11.10;8.80;;;;;;;22.31;36.34;100724.00;5039489;28;20064;-68
2021/07/05 07:46:31;;;;;;;10.05;7.80;;;;;;;21.95;38.65;100725.53;5044032;28;20025;-68
2021/07/05 07:48:56;;;;;;;10.43;7.93;;;;;;;20.67;39.82;100730.56;5048006;28;20470;-68
2021/07/05 07:51:22;;;;;;;10.55;7.63;;;;;;;21.18;38.98;100728.84;5039697;28;20041;-67
2021/07/05 07:53:48;;;;;;;9.43;7.22;;;;;;;21.12;40.78;100732.91;5038952;28;20489;-68
2021/07/05 07:56:14;;;;;;;10.93;8.57;;;;;;;21.44;38.93;100737.19;5036924;28;20554;-68
2021/07/05 07:58:39;;;;;;;11.90;8.38;;;;;;;20.66;39.84;100731.53;5040323;28;20064;-68
2021/07/05 08:01:07;;;;;;;12.38;9.50;;;;;;;21.59;38.67;100735.03;5039289;28;20064;-68
2021/07/05 08:03:32;;;;;;;11.50;7.78;;;;;;;21.43;38.49;100740.84;5023796;28;20403;-67
2021/07/05 08:05:58;;;;;;;11.57;7.72;;;;;;;20.89;39.92;100737.56;5041252;28;20033;-67
2021/07/05 08:08:23;;;;;;;10.95;7.72;;;;;;;21.46;38.70;100730.75;5039298;28;20477;-68
2021/07/05 08:10:49;;;;;;;11.73;9.23;;;;;;;20.49;39.64;100733.81;5040718;28;20033;-67
2021/07/05 08:13:15;;;;;;;12.77;9.50;;;;;;;20.83;39.88;100736.22;5035313;28;20052;-67
2021/07/05 08:15:40;;;;;;;15.32;10.30;;;;;;;20.26;40.13;100734.88;5038668;28;20126;-68
2021/07/05 08:18:06;;;;;;;13.65;9.90;;;;;;;20.08;40.90;100735.44;5037074;28;20393;-68
2021/07/05 08:20:31;;;;;;;12.98;10.10;;;;;;;20.85;40.16;100731.66;5039935;28;20398;-68
2021/07/05 08:22:57;;;;;;;11.48;9.20;;;;;;;21.32;39.68;100737.31;5038239;28;20079;-67
2021/07/05 08:25:25;;;;;;;11.82;10.15;;;;;;;20.60;40.15;100732.06;5039176;28;20055;-67
2021/07/05 08:27:51;;;;;;;12.23;9.13;;;;;;;19.29;42.92;100738.22;5037715;28;20131;-68
2021/07/05 08:30:20;;;;;;;11.30;8.38;;;;;;;20.62;40.98;100735.41;5039727;28;20040;-67
2021/07/05 08:32:45;;;;;;;13.27;9.75;;;;;;;21.11;39.87;100732.06;5037231;28;20033;-67
2021/07/05 08:35:11;;;;;;;15.35;9.95;;;;;;;21.14;40.18;100729.13;5034344;28;20065;-67
2021/07/05 08:37:39;;;;;;;14.70;11.50;;;;;;;20.57;41.21;100732.31;5037902;28;20051;-68
2021/07/05 08:40:08;;;;;;;21.33;10.80;;;;;;;20.96;41.01;100732.56;5037975;28;20102;-67
2021/07/05 08:42:35;;;;;;;18.65;11.80;;;;;;;20.89;40.22;100732.25;5044365;28;20087;-67
2021/07/05 08:45:02;;;;;;;15.90;11.70;;;;;;;20.33;40.81;100736.06;5033112;28;20075;-67
2021/07/05 08:47:33;;;;;;;14.55;10.50;;;;;;;20.27;41.62;100728.63;5036709;28;20025;-67
2021/07/05 08:49:58;;;;;;;15.60;11.20;;;;;;;19.78;42.73;100732.66;5037474;28;20374;-67
2021/07/05 08:52:24;;;;;;;16.17;11.07;;;;;;;19.89;43.15;100735.25;5037691;28;20063;-67
2021/07/05 08:54:49;;;;;;;15.05;10.40;;;;;;;18.88;44.61;100730.91;5016555;28;20041;-67
2021/07/05 08:57:28;;;;;;;19.02;10.45;;;;;;;19.36;43.79;100729.81;5036542;28;20033;-67
2021/07/05 08:59:54;;;;;;;20.10;10.40;;;;;;;19.43;44.00;100737.13;5035124;28;20428;-67
2021/07/05 09:02:21;;;;;;;14.82;10.43;;;;;;;19.42;44.15;100737.28;5040887;28;20036;-67
2021/07/05 09:04:47;;;;;;;13.73;11.18;;;;;;;18.87;45.28;100753.88;5043840;28;20132;-67
2021/07/05 09:07:13;;;;;;;15.63;10.50;;;;;;;16.53;49.58;100782.03;5038335;28;20056;-67
2021/07/05 09:09:55;;;;;;;1.48;0.60;;;;;;;15.84;47.59;100790.00;5040828;28;20045;-67
2021/07/05 09:12:20;;;;;;;0.47;0.20;;;;;;;14.39;52.00;100794.31;5037319;28;20376;-68
2021/07/05 09:15:03;;;;;;;1.50;0.35;;;;;;;14.57;52.89;100806.47;5047034;28;20045;-68
2021/07/05 09:17:33;;;;;;;1.08;0.25;;;;;;;13.92;53.92;100803.97;5044615;28;20390;-70
2021/07/05 09:20:01;;;;;;;0.63;0.40;;;;;;;13.46;55.14;100803.81;5036512;28;20025;-69
2021/07/05 09:22:27;;;;;;;2.45;0.10;;;;;;;13.85;54.34;100813.97;5037813;28;20037;-70
2021/07/05 09:24:57;;;;;;;1.58;0.20;;;;;;;13.96;54.80;100815.16;5034876;28;20059;-67
2021/07/05 09:27:32;;;;;;;0.85;0.20;;;;;;;13.99;54.23;100815.00;5036827;28;20061;-68
2021/07/05 09:30:06;;;;;;;0.30;0.10;;;;;;;14.26;53.93;100816.06;5043811;28;20158;-68
2021/07/05 09:32:33;;;;;;;1.98;0.30;;;;;;;14.21;54.08;100810.22;5044413;28;20090;-68
2021/07/05 09:34:59;;;;;;;1.00;0.20;;;;;;;14.27;53.59;100801.97;5044599;28;20033;-68
2021/07/05 09:37:33;;;;;;;0.63;0.20;;;;;;;14.59;53.27;100793.19;5051423;28;20147;-67
2021/07/05 09:40:02;;;;;;;1.30;0.10;;;;;;;14.58;53.42;100792.38;5041689;28;20397;-67
2021/07/05 09:42:29;;;;;;;0.88;0.20;;;;;;;14.51;52.97;100797.13;5037634;28;20040;-67
2021/07/05 09:44:56;;;;;;;0.30;0.10;;;;;;;14.71;52.50;100803.88;5040327;28;20040;-68
2021/07/05 09:47:25;;;;;;;0.47;0.10;;;;;;;14.76;52.37;100806.22;5042206;28;20039;-67
2021/07/05 09:49:52;;;;;;;0.55;0.00;;;;;;;14.81;52.21;100814.69;5041128;28;20402;-69
2021/07/05 09:52:24;;;;;;;4.72;0.40;;;;;;;14.55;52.22;100819.69;5042780;28;20415;-67
2021/07/05 09:55:07;;;;;;;1.73;0.85;;;;;;;14.74;52.37;100813.34;5040697;28;20113;-68
2021/07/05 09:57:53;;;;;;;3.47;0.20;;;;;;;14.75;52.29;100817.69;5039318;28;20450;-67
2021/07/05 10:00:24;;;;;;;0.65;0.10;;;;;;;14.73;52.17;100822.19;5039805;28;20083;-69
2021/07/05 10:03:03;;;;;;;0.98;0.20;;;;;;;14.80;52.88;100822.69;5039663;28;20049;-68
2021/07/05 10:05:34;;;;;;;0.98;0.15;;;;;;;14.81;52.68;100827.84;5043927;28;20039;-67
2021/07/05 10:08:08;;;;;;;0.30;0.10;;;;;;;14.98;52.67;100822.44;5039148;28;20429;-68
2021/07/05 10:10:37;;;;;;;0.52;0.10;;;;;;;15.06;51.34;100827.25;5042226;28;20227;-68
2021/07/05 10:13:06;;;;;;;0.68;0.10;;;;;;;15.35;52.07;100827.31;5041691;28;20123;-68
2021/07/05 10:15:32;;;;;;;0.65;0.10;;;;;;;15.38;51.96;100817.44;5039202;28;20138;-68
2021/07/05 10:17:58;;;;;;;0.30;0.10;;;;;;;15.68;51.13;100820.91;5041204;28;20045;-68
2021/07/05 10:20:32;;;;;;;0.47;0.10;;;;;;;15.75;50.71;100817.78;5038278;28;20535;-67
2021/07/05 10:23:07;;;;;;;0.38;0.15;;;;;;;15.79;50.54;100819.31;5043818;28;20198;-67
2021/07/05 10:25:38;;;;;;;0.63;0.10;;;;;;;15.86;50.43;100816.25;5038713;28;20569;-67
2021/07/05 10:28:05;;;;;;;0.73;0.20;;;;;;;15.87;49.80;100816.16;5041806;28;20494;-67
2021/07/05 10:30:32;;;;;;;0.43;0.10;;;;;;;16.06;50.26;100822.94;5040782;28;20048;-67
2021/07/05 10:32:58;;;;;;;0.30;0.10;;;;;;;16.25;49.92;100820.81;5045656;28;20048;-68
2021/07/05 10:35:42;;;;;;;0.80;0.10;;;;;;;16.34;50.20;100825.47;5042284;28;20240;-69
2021/07/05 10:38:12;;;;;;;0.65;0.20;;;;;;;16.24;49.00;100824.38;5036993;28;20032;-70
2021/07/05 10:40:54;;;;;;;0.60;0.17;;;;;;;16.18;49.82;100824.78;5052579;28;20041;-68
2021/07/05 10:43:24;;;;;;;1.20;0.40;;;;;;;16.61;49.98;100822.81;5039975;28;20111;-67
2021/07/05 10:45:53;;;;;;;0.40;0.10;;;;;;;16.45;48.99;100829.22;5040425;28;20124;-67
2021/07/05 10:48:31;;;;;;;0.35;0.00;;;;;;;16.71;49.14;100827.47;5039175;28;20028;-67
2021/07/05 10:50:58;;;;;;;0.65;0.10;;;;;;;16.98;47.92;100824.81;5040519;28;20557;-68
2021/07/05 10:53:32;;;;;;;0.55;0.30;;;;;;;16.97;49.08;100829.22;5039382;28;20032;-67
2021/07/05 10:56:00;;;;;;;0.73;0.20;;;;;;;17.73;48.01;100830.16;5022314;28;20041;-67
2021/07/05 10:58:31;;;;;;;0.38;0.20;;;;;;;18.17;46.35;100835.88;5055918;28;20032;-67
2021/07/05 11:01:00;;;;;;;0.93;0.10;;;;;;;18.42;43.78;100829.63;5038835;28;20049;-67
2021/07/05 11:03:38;;;;;;;0.70;0.10;;;;;;;18.17;45.66;100820.00;5052408;28;20037;-67
2021/07/05 11:06:25;;;;;;;0.35;0.10;;;;;;;18.76;45.10;100827.94;5043208;28;20033;-67
2021/07/05 11:08:52;;;;;;;1.20;0.00;;;;;;;18.65;45.02;100826.13;5041142;28;20032;-67
2021/07/05 11:11:32;;;;;;;0.70;0.20;;;;;;;18.88;45.12;100837.66;5040727;28;20037;-68
2021/07/05 11:14:24;;;;;;;0.40;0.10;;;;;;;18.81;44.40;100831.13;5040963;28;20452;-67
2021/07/05 11:17:05;;;;;;;0.28;0.10;;;;;;;17.93;45.38;100834.03;5039088;28;20045;-68
2021/07/05 11:19:38;;;;;;;0.30;0.10;;;;;;;18.19;45.03;100840.13;5039887;28;20101;-66